Time;durP1;ratioP1;P1;durP2;ratioP2;P2;SDS_P1;SDS_P2;PMS_P1;PMS_P2;Temp;Humidity;BMP_temperature;BMP_pressure;BME280_temperature;BME280_humidity;BME280_pressure;Samples;Min_cycle;Max_cycle;Signal;HPM_P1;HPM_P2
2022/11/14 00:02:04;;;;;;;63.58;33.03;;;3.40;99.90;;;;;;5060361;28;20031;-86
2022/11/14 00:04:30;;;;;;;55.75;29.88;;;3.30;99.90;;;;;;5060297;28;20401;-86
2022/11/14 00:06:55;;;;;;;53.25;28.27;;;3.30;99.90;;;;;;5060039;28;20501;-86
2022/11/14 00:09:45;;;;;;;50.95;28.58;;;3.20;99.90;;;;;;5063891;28;20048;-83
2022/11/14 00:12:11;;;;;;;52.58;26.75;;;3.20;99.90;;;;;;5063379;28;20028;-86
2022/11/14 00:14:37;;;;;;;47.40;26.25;;;3.20;99.90;;;;;;5061440;28;20025;-86
2022/11/14 00:17:04;;;;;;;48.13;27.20;;;3.10;99.90;;;;;;5064807;28;20185;-81
2022/11/14 00:19:30;;;;;;;46.78;24.73;;;3.10;99.90;;;;;;5060017;28;20029;-86
2022/11/14 00:21:55;;;;;;;50.47;25.92;;;3.10;99.90;;;;;;5059381;28;20764;-85
2022/11/14 00:24:21;;;;;;;50.53;26.15;;;3.10;99.90;;;;;;5067731;28;20051;-82
2022/11/14 00:26:47;;;;;;;48.97;26.13;;;3.00;99.90;;;;;;5069314;28;20561;-86
2022/11/14 00:29:14;;;;;;;51.70;26.65;;;3.00;99.90;;;;;;5069498;28;20159;-81
2022/11/14 00:31:40;;;;;;;45.42;23.23;;;2.90;99.90;;;;;;5060895;28;20278;-86
2022/11/14 00:34:06;;;;;;;53.60;27.77;;;2.90;99.90;;;;;;5070184;28;20111;-84
2022/11/14 00:36:32;;;;;;;51.67;27.17;;;2.90;99.90;;;;;;5060353;28;20168;-85
2022/11/14 00:38:58;;;;;;;57.50;27.48;;;2.80;99.90;;;;;;5060071;28;20032;-85
2022/11/14 00:41:23;;;;;;;56.63;28.88;;;2.80;99.90;;;;;;5060322;28;20031;-85
2022/11/14 00:43:49;;;;;;;58.40;28.42;;;2.80;99.90;;;;;;5061547;28;20034;-85
2022/11/14 00:46:15;;;;;;;53.05;27.13;;;2.80;99.90;;;;;;5060272;28;20051;-86
2022/11/14 00:48:41;;;;;;;55.50;27.52;;;2.80;99.90;;;;;;5064722;28;20036;-86
2022/11/14 00:51:07;;;;;;;60.03;30.02;;;2.70;99.90;;;;;;5059895;28;20495;-81
2022/11/14 00:53:32;;;;;;;49.40;26.38;;;2.70;99.90;;;;;;5069613;28;20115;-85
2022/11/14 00:56:01;;;;;;;49.88;26.80;;;2.70;99.90;;;;;;5069074;28;20028;-81
2022/11/14 00:58:27;;;;;;;43.53;23.90;;;2.70;99.90;;;;;;5066604;28;20029;-85
2022/11/14 01:00:52;;;;;;;50.20;27.05;;;2.60;99.90;;;;;;5069205;28;20439;-86
2022/11/14 01:03:18;;;;;;;47.30;24.85;;;2.60;99.90;;;;;;5062263;28;20049;-85
2022/11/14 01:05:46;;;;;;;54.25;28.27;;;2.60;99.90;;;;;;5063136;28;20021;-86
2022/11/14 01:08:13;;;;;;;49.83;25.70;;;2.60;99.90;;;;;;5062387;28;20036;-84
2022/11/14 01:10:44;;;;;;;52.03;26.77;;;2.60;99.90;;;;;;5064344;28;20033;-85
2022/11/14 01:13:10;;;;;;;50.83;27.02;;;2.50;99.90;;;;;;5059655;28;20028;-86
2022/11/14 01:15:45;;;;;;;44.20;24.27;;;2.50;99.90;;;;;;5059721;28;20082;-83
2022/11/14 01:18:16;;;;;;;55.20;27.70;;;2.50;99.90;;;;;;5059983;28;20485;-86
2022/11/14 01:20:43;;;;;;;52.25;26.42;;;2.50;99.90;;;;;;5064114;28;20746;-86
2022/11/14 01:23:10;;;;;;;54.08;28.00;;;2.50;99.90;;;;;;5069037;28;20060;-86
2022/11/14 01:25:39;;;;;;;45.10;25.27;;;2.40;99.90;;;;;;5068513;28;20048;-85
2022/11/14 01:28:06;;;;;;;47.58;24.38;;;2.50;99.90;;;;;;5064360;28;20194;-82
2022/11/14 01:30:32;;;;;;;47.42;24.80;;;2.50;99.90;;;;;;5068941;28;20044;-86
2022/11/14 01:32:58;;;;;;;49.60;26.25;;;2.50;99.90;;;;;;5068580;28;20109;-86
2022/11/14 01:35:23;;;;;;;55.55;29.23;;;2.40;99.90;;;;;;5068839;28;20403;-86
2022/11/14 01:37:49;;;;;;;56.83;27.40;;;2.40;99.90;;;;;;5063084;28;20036;-84
2022/11/14 01:40:15;;;;;;;52.72;27.05;;;2.40;99.90;;;;;;5063845;28;20366;-86
2022/11/14 01:42:41;;;;;;;48.95;24.40;;;2.40;99.90;;;;;;5068650;28;20079;-86
2022/11/14 01:45:44;;;;;;;49.38;24.70;;;2.40;99.90;;;;;;5058035;28;20079;-82
2022/11/14 01:48:35;;;;;;;52.20;26.88;;;2.40;99.90;;;;;;5057174;28;20097;-86
2022/11/14 01:51:15;;;;;;;54.03;27.80;;;2.40;99.90;;;;;;5062110;28;20028;-86
2022/11/14 01:53:42;;;;;;;49.47;27.90;;;2.40;99.90;;;;;;5063864;28;20044;-86
2022/11/14 01:56:11;;;;;;;45.42;25.63;;;2.30;99.90;;;;;;5059029;28;20032;-85
2022/11/14 01:58:41;;;;;;;47.95;25.67;;;2.30;99.90;;;;;;5062156;28;20108;-83
2022/11/14 02:01:06;;;;;;;49.30;26.48;;;2.30;99.90;;;;;;5058156;28;20025;-85
2022/11/14 02:03:36;;;;;;;52.13;27.38;;;2.30;99.90;;;;;;5058199;28;20240;-85
2022/11/14 02:06:03;;;;;;;51.97;26.55;;;2.30;99.90;;;;;;5066948;28;20033;-85
2022/11/14 02:08:29;;;;;;;52.78;26.90;;;2.30;99.90;;;;;;5062104;28;20036;-83
2022/11/14 02:10:55;;;;;;;43.20;23.67;;;2.30;99.90;;;;;;5067669;28;20040;-86
2022/11/14 02:13:21;;;;;;;52.33;25.88;;;2.30;99.90;;;;;;5068258;28;20024;-83
2022/11/14 02:15:46;;;;;;;48.50;25.00;;;2.20;99.90;;;;;;5064754;28;20051;-86
2022/11/14 02:18:12;;;;;;;53.80;27.25;;;2.20;99.90;;;;;;5067527;28;20078;-85
2022/11/14 02:20:42;;;;;;;56.00;28.65;;;2.20;99.90;;;;;;5067515;28;20055;-86
2022/11/14 02:23:09;;;;;;;53.33;27.73;;;2.20;99.90;;;;;;5063456;28;20459;-85
2022/11/14 02:25:35;;;;;;;58.40;29.73;;;2.20;99.90;;;;;;5060890;28;20055;-84
2022/11/14 02:28:03;;;;;;;60.95;31.10;;;2.20;99.90;;;;;;5057308;28;20056;-86
2022/11/14 02:30:28;;;;;;;62.28;29.63;;;2.30;99.90;;;;;;5066297;28;20032;-82
2022/11/14 02:32:54;;;;;;;58.55;30.85;;;2.30;99.90;;;;;;5057483;28;20082;-86
2022/11/14 02:35:20;;;;;;;61.47;30.55;;;2.30;99.90;;;;;;5054886;28;20041;-82
2022/11/14 02:37:45;;;;;;;120.22;33.72;;;2.40;99.90;;;;;;5060390;28;20055;-86
2022/11/14 02:40:11;;;;;;;59.05;30.55;;;2.50;99.90;;;;;;5057711;28;20032;-86
2022/11/14 02:42:37;;;;;;;69.82;32.28;;;2.50;99.90;;;;;;5057494;28;20136;-83
2022/11/14 02:45:03;;;;;;;66.93;32.92;;;2.60;99.90;;;;;;5056947;28;20029;-86
2022/11/14 02:47:28;;;;;;;71.32;33.70;;;2.60;99.90;;;;;;5058150;28;20043;-86
2022/11/14 02:49:54;;;;;;;63.72;31.63;;;2.60;99.90;;;;;;5057864;28;20118;-86
2022/11/14 02:52:19;;;;;;;64.15;32.60;;;2.70;99.90;;;;;;5058177;28;20028;-81
2022/11/14 02:54:45;;;;;;;61.75;31.15;;;2.70;99.90;;;;;;5064006;28;20025;-87
2022/11/14 02:57:11;;;;;;;71.95;35.35;;;2.80;99.90;;;;;;5055927;28;20462;-87
2022/11/14 02:59:36;;;;;;;60.90;30.85;;;2.80;99.90;;;;;;5057041;28;20056;-86
2022/11/14 03:02:02;;;;;;;65.07;34.42;;;2.90;99.90;;;;;;5057350;28;20052;-87
2022/11/14 03:04:27;;;;;;;55.47;29.88;;;2.90;99.90;;;;;;5056946;28;20036;-86
2022/11/14 03:06:53;;;;;;;65.28;33.45;;;2.90;99.90;;;;;;5065309;28;20536;-87
2022/11/14 03:09:19;;;;;;;58.88;29.67;;;3.00;99.90;;;;;;5067462;28;20028;-86
2022/11/14 03:11:44;;;;;;;54.67;28.80;;;3.00;99.90;;;;;;5065938;28;20064;-86
2022/11/14 03:14:10;;;;;;;67.55;31.88;;;3.00;99.90;;;;;;5058238;28;20090;-87
2022/11/14 03:16:36;;;;;;;71.30;35.22;;;3.00;99.90;;;;;;5057708;28;20033;-84
2022/11/14 03:19:01;;;;;;;67.47;32.15;;;3.10;99.90;;;;;;5057988;28;20033;-86
2022/11/14 03:21:27;;;;;;;69.30;32.75;;;3.10;99.90;;;;;;5061447;28;20035;-86
2022/11/14 03:23:53;;;;;;;56.35;28.63;;;3.20;99.90;;;;;;5061548;28;20435;-87
2022/11/14 03:26:19;;;;;;;50.97;27.33;;;3.20;99.90;;;;;;5061132;28;20053;-82
2022/11/14 03:28:45;;;;;;;47.13;25.67;;;3.20;99.90;;;;;;5061008;28;20029;-86
2022/11/14 03:31:12;;;;;;;47.05;26.23;;;3.20;99.90;;;;;;5062451;28;20036;-86
2022/11/14 03:33:38;;;;;;;61.53;31.05;;;3.20;99.90;;;;;;5067323;28;20024;-85
2022/11/14 03:36:05;;;;;;;50.60;27.50;;;3.20;99.90;;;;;;5071280;28;20029;-85
2022/11/14 03:38:31;;;;;;;57.78;32.65;;;3.20;99.90;;;;;;5070905;28;20032;-87
2022/11/14 03:40:58;;;;;;;56.47;30.38;;;3.20;99.90;;;;;;5059202;28;20104;-87
2022/11/14 03:43:24;;;;;;;69.35;32.55;;;3.20;99.90;;;;;;5060442;28;20077;-86
2022/11/14 03:45:49;;;;;;;60.72;33.30;;;3.20;99.90;;;;;;5060194;28;20447;-83
2022/11/14 03:48:15;;;;;;;54.50;31.00;;;3.20;99.90;;;;;;5064401;28;20028;-86
2022/11/14 03:50:43;;;;;;;51.17;29.48;;;3.10;99.90;;;;;;5065953;28;20488;-85
2022/11/14 03:53:10;;;;;;;50.00;28.48;;;3.10;99.90;;;;;;5065896;28;20024;-86
2022/11/14 03:55:36;;;;;;;61.10;32.42;;;3.10;99.90;;;;;;5070810;28;20048;-86
2022/11/14 03:58:02;;;;;;;59.55;32.90;;;3.10;99.90;;;;;;5068161;28;20291;-87
2022/11/14 04:00:28;;;;;;;55.60;31.17;;;3.10;99.90;;;;;;5060339;28;20033;-87
2022/11/14 04:02:57;;;;;;;64.80;33.72;;;3.10;99.90;;;;;;5059986;28;20029;-81
2022/11/14 04:05:23;;;;;;;60.65;33.15;;;3.20;99.90;;;;;;5060173;28;20043;-85
2022/11/14 04:07:49;;;;;;;69.78;34.78;;;3.20;99.90;;;;;;5059869;28;20070;-85
2022/11/14 04:10:15;;;;;;;63.97;33.00;;;3.20;99.90;;;;;;5060305;28;20082;-86
2022/11/14 04:12:41;;;;;;;49.35;28.70;;;3.20;99.90;;;;;;5053778;28;20071;-86
2022/11/14 04:15:07;;;;;;;55.33;31.25;;;3.20;99.90;;;;;;5066227;28;20060;-86
2022/11/14 04:17:32;;;;;;;99.82;34.05;;;3.20;99.90;;;;;;5069994;28;20116;-85
2022/11/14 04:19:58;;;;;;;61.22;32.88;;;3.10;99.90;;;;;;5070048;28;20437;-86
2022/11/14 04:22:23;;;;;;;62.63;34.50;;;3.10;99.90;;;;;;5070215;28;20042;-85
2022/11/14 04:24:49;;;;;;;77.85;33.47;;;3.10;99.90;;;;;;5057470;28;20106;-86
2022/11/14 04:27:14;;;;;;;62.05;33.33;;;3.10;99.90;;;;;;5059796;28;20037;-87
2022/11/14 04:29:40;;;;;;;55.88;29.83;;;3.10;99.90;;;;;;5059680;28;20206;-86
2022/11/14 04:32:06;;;;;;;48.55;26.95;;;3.10;99.90;;;;;;5058052;28;20039;-83
2022/11/14 04:34:31;;;;;;;52.40;30.60;;;3.10;99.90;;;;;;5066384;28;20408;-86
2022/11/14 04:36:57;;;;;;;49.97;28.70;;;3.20;99.90;;;;;;5069762;28;20397;-86
2022/11/14 04:39:22;;;;;;;43.30;26.40;;;3.10;99.90;;;;;;5067319;28;20040;-86
2022/11/14 04:41:48;;;;;;;42.05;25.58;;;3.20;99.90;;;;;;5059550;28;20025;-86
2022/11/14 04:44:14;;;;;;;43.08;25.98;;;3.10;99.90;;;;;;5059132;28;20032;-86
2022/11/14 04:46:39;;;;;;;54.65;27.25;;;3.10;99.90;;;;;;5058801;28;20052;-86
2022/11/14 04:49:05;;;;;;;52.53;28.38;;;3.10;99.90;;;;;;5059546;28;20029;-84
2022/11/14 04:51:30;;;;;;;46.60;27.77;;;3.10;99.90;;;;;;5059614;28;20029;-87
2022/11/14 04:53:56;;;;;;;55.25;31.92;;;3.10;99.90;;;;;;5059565;28;20327;-86
2022/11/14 04:56:24;;;;;;;48.75;28.73;;;3.10;99.90;;;;;;5059449;28;20401;-83
2022/11/14 04:58:50;;;;;;;54.05;31.35;;;3.10;99.90;;;;;;5058039;28;20028;-87
2022/11/14 05:01:16;;;;;;;50.28;27.75;;;3.00;99.90;;;;;;5066323;28;20086;-86
2022/11/14 05:03:42;;;;;;;44.63;28.60;;;3.00;99.90;;;;;;5069361;28;20115;-86
2022/11/14 05:06:08;;;;;;;48.53;27.17;;;3.00;99.90;;;;;;5069309;28;20325;-85
2022/11/14 05:08:34;;;;;;;48.05;28.05;;;3.00;99.90;;;;;;5064870;28;20452;-86
2022/11/14 05:10:59;;;;;;;55.38;29.60;;;3.00;99.90;;;;;;5058931;28;20052;-85
2022/11/14 05:13:25;;;;;;;47.95;28.00;;;3.10;99.90;;;;;;5058985;28;20302;-86
2022/11/14 05:15:51;;;;;;;48.90;29.13;;;3.10;99.90;;;;;;5060488;28;20107;-85
2022/11/14 05:18:16;;;;;;;50.88;28.50;;;3.10;99.90;;;;;;5059870;28;20415;-86
2022/11/14 05:20:42;;;;;;;78.70;31.77;;;3.10;99.90;;;;;;5059581;28;20033;-86
2022/11/14 05:23:19;;;;;;;85.82;31.92;;;3.00;99.90;;;;;;5058311;28;20059;-86
2022/11/14 05:25:45;;;;;;;56.33;31.98;;;3.00;99.90;;;;;;5058484;28;20155;-86
2022/11/14 05:28:11;;;;;;;86.43;31.90;;;3.00;99.90;;;;;;5058315;28;20131;-86
2022/11/14 05:30:36;;;;;;;54.92;30.67;;;3.00;99.90;;;;;;5058639;28;20060;-86
2022/11/14 05:33:02;;;;;;;52.25;28.65;;;2.90;99.90;;;;;;5058760;28;20432;-86
2022/11/14 05:35:28;;;;;;;55.63;30.05;;;3.00;99.90;;;;;;5058902;28;20013;-86
2022/11/14 05:37:53;;;;;;;56.00;29.20;;;2.90;99.90;;;;;;5068760;28;20413;-86
2022/11/14 05:40:19;;;;;;;48.15;27.48;;;2.90;99.90;;;;;;5068629;28;20481;-85
2022/11/14 05:42:44;;;;;;;41.50;25.60;;;3.00;99.90;;;;;;5059753;28;20043;-86
2022/11/14 05:45:10;;;;;;;42.13;24.08;;;2.90;99.90;;;;;;5066707;28;20283;-86
2022/11/14 05:47:36;;;;;;;44.90;26.10;;;2.90;99.90;;;;;;5068148;28;20044;-83
2022/11/14 05:50:02;;;;;;;45.15;25.45;;;3.00;99.90;;;;;;5067758;28;20029;-87
2022/11/14 05:52:27;;;;;;;54.72;27.98;;;3.00;99.90;;;;;;5058929;28;20025;-87
2022/11/14 05:54:53;;;;;;;51.90;30.05;;;3.10;99.90;;;;;;5058792;28;20385;-86
2022/11/14 05:57:19;;;;;;;49.47;27.08;;;3.10;99.90;;;;;;5059149;28;20024;-86
2022/11/14 05:59:44;;;;;;;83.25;30.42;;;3.10;99.90;;;;;;5058811;28;20025;-87
2022/11/14 06:02:10;;;;;;;49.80;27.55;;;3.10;99.90;;;;;;5058918;28;20291;-87
2022/11/14 06:04:36;;;;;;;50.20;27.50;;;3.10;99.90;;;;;;5059125;28;20029;-83
2022/11/14 06:07:01;;;;;;;48.20;27.27;;;3.10;99.90;;;;;;5062507;28;20091;-86
2022/11/14 06:09:27;;;;;;;39.97;23.83;;;3.10;99.90;;;;;;5057891;28;20036;-86
2022/11/14 06:11:53;;;;;;;39.55;24.20;;;3.10;99.90;;;;;;5061475;28;20020;-87
2022/11/14 06:14:18;;;;;;;44.35;25.90;;;3.10;99.90;;;;;;5060644;28;20039;-87
2022/11/14 06:16:47;;;;;;;60.88;30.25;;;3.10;99.90;;;;;;5064213;28;20032;-82
2022/11/14 06:19:12;;;;;;;47.88;27.67;;;3.10;99.90;;;;;;5063724;28;20481;-86
2022/11/14 06:21:38;;;;;;;44.92;28.17;;;3.10;99.90;;;;;;5065944;28;20032;-87
2022/11/14 06:24:04;;;;;;;47.00;26.35;;;3.00;99.90;;;;;;5062419;28;20021;-86
2022/11/14 06:26:31;;;;;;;44.50;25.42;;;3.00;99.90;;;;;;5059170;28;20037;-85
2022/11/14 06:28:59;;;;;;;42.63;24.67;;;3.00;99.90;;;;;;5056202;28;20036;-87
2022/11/14 06:31:24;;;;;;;50.75;28.35;;;3.00;99.90;;;;;;5057700;28;20032;-86
2022/11/14 06:33:51;;;;;;;48.22;28.05;;;2.90;99.90;;;;;;5059553;28;20448;-85
2022/11/14 06:36:16;;;;;;;56.90;29.42;;;2.90;99.90;;;;;;5050002;28;20033;-86
2022/11/14 06:38:45;;;;;;;64.30;31.63;;;2.90;99.90;;;;;;5062515;28;20055;-87
2022/11/14 06:41:14;;;;;;;96.70;40.08;;;2.90;99.90;;;;;;5064360;28;20537;-86
2022/11/14 06:43:41;;;;;;;106.43;43.08;;;2.80;99.90;;;;;;5067534;28;20035;-85
2022/11/14 06:46:08;;;;;;;98.28;43.92;;;2.80;99.90;;;;;;5067522;28;20035;-84
2022/11/14 06:48:35;;;;;;;85.53;38.75;;;2.80;99.90;;;;;;5057617;28;20440;-86
2022/11/14 06:51:02;;;;;;;56.88;30.23;;;2.80;99.90;;;;;;5061415;28;20024;-86
2022/11/14 06:53:30;;;;;;;62.50;33.03;;;2.80;99.90;;;;;;5067589;28;20081;-86
2022/11/14 06:55:58;;;;;;;55.10;30.15;;;2.80;99.90;;;;;;5071345;28;20024;-86
2022/11/14 06:58:35;;;;;;;56.22;31.27;;;2.80;99.90;;;;;;5063623;28;20033;-86
2022/11/14 07:01:07;;;;;;;57.53;29.98;;;2.80;99.90;;;;;;5061522;28;20044;-87
2022/11/14 07:03:33;;;;;;;71.35;36.75;;;2.80;99.90;;;;;;5061597;28;20431;-87
2022/11/14 07:06:00;;;;;;;57.55;30.80;;;2.80;99.90;;;;;;5070271;28;20024;-86
2022/11/14 07:08:26;;;;;;;84.18;38.17;;;2.90;99.90;;;;;;5066853;28;20025;-87
2022/11/14 07:10:52;;;;;;;77.30;37.30;;;2.90;99.90;;;;;;5067491;28;20096;-86
2022/11/14 07:13:17;;;;;;;62.28;35.33;;;2.90;99.90;;;;;;5065024;28;20040;-87
2022/11/14 07:15:53;;;;;;;73.25;36.08;;;2.90;99.90;;;;;;5061112;28;20009;-86
2022/11/14 07:18:19;;;;;;;56.25;29.35;;;3.00;99.90;;;;;;5060902;28;20060;-82
2022/11/14 07:20:45;;;;;;;74.05;39.33;;;3.00;99.90;;;;;;5061832;28;20036;-86
2022/11/14 07:23:11;;;;;;;90.45;37.10;;;3.00;99.90;;;;;;5062075;28;20025;-86
2022/11/14 07:25:36;;;;;;;62.72;32.47;;;3.00;99.90;;;;;;5071606;28;20044;-86
2022/11/14 07:28:02;;;;;;;72.00;35.75;;;2.90;99.90;;;;;;5071321;28;20121;-87
2022/11/14 07:30:29;;;;;;;60.22;31.85;;;3.00;99.90;;;;;;5061691;28;20032;-81
2022/11/14 07:32:56;;;;;;;76.13;34.78;;;3.10;99.90;;;;;;5061506;28;20111;-86
2022/11/14 07:35:22;;;;;;;66.00;36.03;;;3.00;99.90;;;;;;5061849;28;20048;-84
2022/11/14 07:37:48;;;;;;;72.20;37.40;;;3.00;99.90;;;;;;5061732;28;20357;-87
2022/11/14 07:40:14;;;;;;;68.30;36.85;;;3.00;99.90;;;;;;5057881;28;20032;-87
2022/11/14 07:42:40;;;;;;;66.40;34.97;;;3.00;99.90;;;;;;5064877;28;20136;-85
2022/11/14 07:45:06;;;;;;;61.15;33.47;;;3.00;99.90;;;;;;5066168;28;20438;-83
2022/11/14 07:47:32;;;;;;;64.93;32.90;;;3.00;99.90;;;;;;5070607;28;20527;-87
2022/11/14 07:49:57;;;;;;;70.57;36.60;;;3.10;99.90;;;;;;5070894;28;20056;-87
2022/11/14 07:52:23;;;;;;;62.13;32.47;;;3.10;99.90;;;;;;5067620;28;20029;-85
2022/11/14 07:54:48;;;;;;;61.47;34.50;;;3.10;99.90;;;;;;5070454;28;20393;-86
2022/11/14 07:57:14;;;;;;;74.10;39.25;;;3.10;99.90;;;;;;5069721;28;20035;-84
2022/11/14 07:59:40;;;;;;;62.40;34.25;;;3.10;99.90;;;;;;5065901;28;20052;-86
2022/11/14 08:02:07;;;;;;;70.45;37.47;;;3.10;99.90;;;;;;5064134;28;20025;-87
2022/11/14 08:04:33;;;;;;;61.80;32.85;;;3.20;99.90;;;;;;5067939;28;20032;-85
2022/11/14 08:06:58;;;;;;;90.78;47.08;;;3.20;99.90;;;;;;5069094;28;20067;-87
2022/11/14 08:09:24;;;;;;;81.30;42.28;;;3.30;99.90;;;;;;5065399;28;20258;-81
2022/11/14 08:11:50;;;;;;;79.25;40.00;;;3.30;99.90;;;;;;5060174;28;20036;-86
2022/11/14 08:14:17;;;;;;;70.68;36.75;;;3.40;99.90;;;;;;5060421;28;20033;-87
2022/11/14 08:16:42;;;;;;;66.13;35.90;;;3.40;99.90;;;;;;5058715;28;20035;-86
2022/11/14 08:19:08;;;;;;;61.80;34.13;;;3.40;99.90;;;;;;5070488;28;20389;-86
2022/11/14 08:21:34;;;;;;;70.82;36.75;;;3.50;99.90;;;;;;5070080;28;20082;-87
2022/11/14 08:24:00;;;;;;;77.45;42.15;;;3.60;99.90;;;;;;5068841;28;20059;-85
2022/11/14 08:26:25;;;;;;;77.35;39.13;;;3.70;99.90;;;;;;5059893;28;20068;-87
2022/11/14 08:28:53;;;;;;;65.15;35.47;;;3.90;99.90;;;;;;5061525;28;20035;-87
2022/11/14 08:31:19;;;;;;;68.78;35.20;;;3.80;99.90;;;;;;5060564;28;20116;-87
2022/11/14 08:33:45;;;;;;;71.63;37.55;;;3.90;99.90;;;;;;5061142;28;20025;-87
2022/11/14 08:36:10;;;;;;;82.80;37.95;;;3.90;99.90;;;;;;5058940;28;20089;-87
2022/11/14 08:38:36;;;;;;;70.38;37.42;;;3.90;99.90;;;;;;5060446;28;20078;-85
2022/11/14 08:41:03;;;;;;;66.60;37.95;;;3.90;99.90;;;;;;5060305;28;20032;-87
2022/11/14 08:43:29;;;;;;;74.30;41.38;;;3.80;99.90;;;;;;5060325;28;20039;-86
2022/11/14 08:46:00;;;;;;;91.93;41.47;;;3.90;99.90;;;;;;5060901;28;20481;-85
2022/11/14 08:48:26;;;;;;;80.68;40.70;;;3.80;99.90;;;;;;5068644;28;20087;-86
2022/11/14 08:50:52;;;;;;;83.90;44.90;;;3.80;99.90;;;;;;5069888;28;20370;-87
2022/11/14 08:53:17;;;;;;;83.60;43.05;;;3.80;99.90;;;;;;5060651;28;20120;-88
2022/11/14 08:55:44;;;;;;;92.28;45.95;;;3.90;99.90;;;;;;5059873;28;20020;-86
2022/11/14 08:58:10;;;;;;;104.65;45.67;;;4.00;99.90;;;;;;5060160;28;20036;-87
2022/11/14 09:00:35;;;;;;;90.00;48.03;;;4.00;99.90;;;;;;5061218;28;20077;-87
2022/11/14 09:03:09;;;;;;;98.03;47.75;;;4.10;99.90;;;;;;5068739;28;20024;-86
2022/11/14 09:05:36;;;;;;;96.22;45.92;;;4.10;99.90;;;;;;5062408;28;20159;-84
2022/11/14 09:08:03;;;;;;;96.95;47.75;;;4.20;99.90;;;;;;5062198;28;20508;-86
2022/11/14 09:10:28;;;;;;;95.93;46.70;;;4.10;99.90;;;;;;5055436;28;20020;-86
2022/11/14 09:12:55;;;;;;;99.25;48.72;;;4.20;99.90;;;;;;5062638;28;20401;-87
2022/11/14 09:15:21;;;;;;;99.85;49.53;;;4.20;99.90;;;;;;5060891;28;20036;-85
2022/11/14 09:17:47;;;;;;;106.78;50.63;;;4.30;99.90;;;;;;5068607;28;20090;-86
2022/11/14 09:20:13;;;;;;;107.78;48.55;;;4.30;99.90;;;;;;5069065;28;20107;-87
2022/11/14 09:22:38;;;;;;;102.78;49.53;;;4.30;99.90;;;;;;5059707;28;20028;-87
2022/11/14 09:25:04;;;;;;;112.90;53.08;;;4.40;99.90;;;;;;5058665;28;20129;-85
2022/11/14 09:27:30;;;;;;;104.88;48.88;;;4.40;99.90;;;;;;5063477;28;20044;-87
2022/11/14 09:29:56;;;;;;;104.97;51.58;;;4.50;99.90;;;;;;5058846;28;20025;-87
2022/11/14 09:32:21;;;;;;;101.35;49.38;;;4.50;99.90;;;;;;5058625;28;20461;-87
2022/11/14 09:34:47;;;;;;;99.78;48.65;;;4.60;99.90;;;;;;5048676;28;20120;-86
2022/11/14 09:37:12;;;;;;;98.43;50.60;;;4.70;99.90;;;;;;5059109;28;20032;-86
2022/11/14 09:39:39;;;;;;;107.63;51.15;;;4.80;99.90;;;;;;5068192;28;20056;-87
2022/11/14 09:42:26;;;;;;;108.65;52.13;;;4.80;99.90;;;;;;5058856;28;20041;-83
2022/11/14 09:45:01;;;;;;;105.20;51.92;;;4.90;99.90;;;;;;5056695;28;20099;-84
2022/11/14 09:47:30;;;;;;;102.68;50.17;;;5.00;99.90;;;;;;5059948;28;20047;-88
2022/11/14 09:50:09;;;;;;;107.75;50.90;;;5.00;99.90;;;;;;5067815;28;20028;-87
2022/11/14 09:53:10;;;;;;;116.03;54.92;;;5.10;99.90;;;;;;5060930;28;20052;-86
2022/11/14 09:55:36;;;;;;;108.80;51.40;;;5.20;99.90;;;;;;5026028;28;20034;-86
2022/11/14 09:58:03;;;;;;;100.65;50.92;;;5.20;99.90;;;;;;5059211;28;20090;-86
2022/11/14 10:00:49;;;;;;;109.22;50.25;;;5.30;99.90;;;;;;5064914;28;20111;-86
2022/11/14 10:03:37;;;;;;;89.85;45.95;;;5.30;99.90;;;;;;5060828;28;20032;-87
2022/11/14 10:06:22;;;;;;;99.05;50.28;;;5.30;99.90;;;;;;5058223;28;20040;-87
2022/11/14 10:09:11;;;;;;;97.97;49.92;;;5.40;99.90;;;;;;5066663;28;20543;-86
2022/11/14 10:11:39;;;;;;;117.95;54.28;;;5.50;99.90;;;;;;5067783;28;20024;-86
2022/11/14 10:14:13;;;;;;;107.88;51.67;;;5.60;99.90;;;;;;5067988;28;20032;-84
2022/11/14 10:17:04;;;;;;;104.68;50.55;;;5.60;99.90;;;;;;5058682;28;20561;-87
2022/11/14 10:19:48;;;;;;;96.82;48.67;;;5.70;99.90;;;;;;5056305;28;20526;-87
2022/11/14 10:22:21;;;;;;;86.22;45.00;;;5.80;99.90;;;;;;5063669;28;20036;-87
2022/11/14 10:24:53;;;;;;;86.45;45.60;;;5.80;99.90;;;;;;5068180;28;20126;-87
2022/11/14 10:27:36;;;;;;;86.18;43.63;;;5.90;99.90;;;;;;5058241;28;20037;-82
2022/11/14 10:30:05;;;;;;;85.82;41.33;;;6.00;99.90;;;;;;5060227;28;20028;-88
2022/11/14 10:33:08;;;;;;;72.57;38.33;;;6.30;99.90;;;;;;5063929;28;20033;-87
2022/11/14 10:35:54;;;;;;;66.70;36.00;;;6.50;99.90;;;;;;5057787;28;20024;-87
2022/11/14 10:38:28;;;;;;;56.75;32.03;;;6.70;99.90;;;;;;5057760;28;20104;-87
2022/11/14 10:40:59;;;;;;;51.78;30.63;;;6.90;99.90;;;;;;5057505;28;20474;-88
2022/11/14 10:43:39;;;;;;;42.58;27.05;;;7.10;99.90;;;;;;5066044;28;20028;-87
2022/11/14 10:46:23;;;;;;;37.63;24.80;;;7.20;99.90;;;;;;5067673;28;20101;-86
2022/11/14 10:48:50;;;;;;;36.42;22.70;;;7.30;99.90;;;;;;5062725;28;20518;-82
2022/11/14 10:51:34;;;;;;;31.45;20.95;;;7.50;99.90;;;;;;5059019;28;20077;-87
2022/11/14 10:54:22;;;;;;;34.75;19.63;;;7.60;99.90;;;;;;5058266;28;20051;-87
2022/11/14 10:56:50;;;;;;;29.75;17.48;;;7.80;99.90;;;;;;5057518;28;20039;-86
2022/11/14 10:59:17;;;;;;;30.17;17.50;;;7.90;99.90;;;;;;5062281;28;20525;-87
2022/11/14 11:01:57;;;;;;;30.35;18.33;;;8.00;99.90;;;;;;5066656;28;20034;-87
2022/11/14 11:04:31;;;;;;;26.35;16.70;;;8.10;99.90;;;;;;5067466;28;20025;-87
2022/11/14 11:13:12;;;;;;;25.88;16.02;;;8.40;99.90;;;;;;5060621;28;20116;-86
2022/11/14 11:15:40;;;;;;;20.60;14.07;;;8.50;99.90;;;;;;5062893;28;20503;-87
2022/11/14 11:18:23;;;;;;;27.77;16.15;;;8.60;99.90;;;;;;5067196;28;20037;-87
2022/11/14 11:21:15;;;;;;;21.83;14.75;;;8.80;99.90;;;;;;5058649;28;20032;-86
2022/11/14 11:23:51;;;;;;;20.25;14.60;;;9.00;99.90;;;;;;5062041;28;20033;-88
2022/11/14 11:26:19;;;;;;;24.80;14.38;;;9.10;99.90;;;;;;5057652;28;20413;-87
2022/11/14 11:29:02;;;;;;;22.67;14.07;;;9.20;99.90;;;;;;5057855;28;20477;-86
2022/11/14 11:31:39;;;;;;;23.13;15.10;;;9.20;99.90;;;;;;5056253;28;20074;-89
2022/11/14 11:34:08;;;;;;;22.58;14.35;;;9.20;99.90;;;;;;5057343;28;20037;-86
2022/11/14 11:36:39;;;;;;;20.02;13.90;;;9.20;99.90;;;;;;5057343;28;20520;-87
2022/11/14 11:39:04;;;;;;;20.17;13.25;;;9.30;99.90;;;;;;5053425;28;20037;-86
2022/11/14 11:41:34;;;;;;;19.83;13.27;;;9.40;99.90;;;;;;5069990;28;20033;-88
2022/11/14 11:44:04;;;;;;;23.88;14.82;;;9.40;99.90;;;;;;5068006;28;20119;-87
2022/11/14 11:46:56;;;;;;;27.27;14.27;;;9.50;99.90;;;;;;5065023;28;20036;-89
2022/11/14 11:49:40;;;;;;;27.70;14.25;;;9.60;99.90;;;;;;5060499;28;20036;-87
2022/11/14 11:52:15;;;;;;;21.70;13.95;;;9.80;99.90;;;;;;5063999;28;20035;-86
2022/11/14 11:55:18;;;;;;;24.80;13.75;;;9.80;99.90;;;;;;5059431;28;20035;-87
2022/11/14 11:58:04;;;;;;;22.00;13.77;;;9.80;99.90;;;;;;5054397;28;20116;-87
2022/11/14 12:00:30;;;;;;;23.25;14.32;;;9.70;99.90;;;;;;5059571;28;20033;-85
2022/11/14 12:02:57;;;;;;;21.38;13.55;;;9.70;99.90;;;;;;5060747;28;20033;-86
2022/11/14 12:05:48;;;;;;;21.52;13.15;;;9.70;99.90;;;;;;5061513;28;20061;-85
2022/11/14 12:08:41;;;;;;;22.60;13.60;;;9.70;99.90;;;;;;5060787;28;20048;-86
2022/11/14 12:11:18;;;;;;;23.00;13.93;;;9.70;99.90;;;;;;5060308;28;20045;-85
2022/11/14 12:13:59;;;;;;;19.35;13.07;;;9.70;99.90;;;;;;5061188;28;20028;-88
2022/11/14 12:16:40;;;;;;;21.80;13.43;;;9.80;99.90;;;;;;5069857;28;20041;-84
2022/11/14 12:19:38;;;;;;;19.27;12.30;;;9.90;99.90;;;;;;5061563;28;20028;-85
2022/11/14 12:22:26;;;;;;;20.23;13.32;;;9.90;99.90;;;;;;5063343;28;20575;-81
2022/11/14 12:25:19;;;;;;;19.80;12.55;;;10.00;99.90;;;;;;5067183;28;20053;-86
2022/11/14 12:27:54;;;;;;;20.95;12.80;;;10.00;99.90;;;;;;5070273;28;20032;-85
2022/11/14 12:30:22;;;;;;;19.83;12.90;;;10.20;99.90;;;;;;5070413;28;20056;-87
2022/11/14 12:33:01;;;;;;;18.63;12.13;;;10.20;99.90;;;;;;5060563;28;20275;-85
2022/11/14 12:35:31;;;;;;;25.05;13.45;;;10.20;99.90;;;;;;5068445;28;20082;-89
2022/11/14 12:37:59;;;;;;;26.95;13.40;;;10.10;99.90;;;;;;5058314;28;20119;-87
2022/11/14 12:40:28;;;;;;;19.00;12.98;;;10.20;99.90;;;;;;5059636;28;20025;-86
2022/11/14 12:42:55;;;;;;;28.67;14.60;;;10.20;99.90;;;;;;5059602;28;20047;-84
2022/11/14 12:46:07;;;;;;;20.40;13.77;;;10.20;99.90;;;;;;5064435;28;20354;-86
2022/11/14 12:48:37;;;;;;;22.48;12.73;;;10.20;99.90;;;;;;5050470;28;20086;-86
2022/11/14 12:51:24;;;;;;;20.48;13.20;;;10.30;99.90;;;;;;5059992;28;20055;-85
2022/11/14 12:53:51;;;;;;;15.57;11.75;;;10.30;99.90;;;;;;5058870;28;20044;-85